createdAt,value
2023-06-07T00:00:10.290Z,99970.44
2023-06-07T00:02:44.245Z,99960.00
2023-06-07T00:05:14.327Z,99965.66
2023-06-07T00:07:42.904Z,99959.22
2023-06-07T00:10:11.522Z,99963.78
2023-06-07T00:12:41.093Z,99963.94
2023-06-07T00:15:09.733Z,99959.59
2023-06-07T00:17:39.074Z,99963.72
2023-06-07T00:20:10.262Z,99962.22
2023-06-07T00:22:40.098Z,99955.38
2023-06-07T00:25:09.818Z,99948.16
2023-06-07T00:27:37.965Z,99950.34
2023-06-07T00:30:08.854Z,99950.25
2023-06-07T00:32:36.875Z,99943.97
2023-06-07T00:35:08.287Z,99945.25
2023-06-07T00:37:36.311Z,99940.63
2023-06-07T00:40:06.240Z,99943.13
2023-06-07T00:42:34.430Z,99940.66
2023-06-07T00:45:02.384Z,99945.81
2023-06-07T00:47:31.834Z,99937.06
2023-06-07T00:49:59.941Z,99939.81
2023-06-07T00:52:27.960Z,99936.91
2023-06-07T00:54:55.987Z,99924.00
2023-06-07T00:57:23.921Z,99928.63
2023-06-07T00:59:51.876Z,99930.97
2023-06-07T01:02:19.875Z,99931.31
2023-06-07T01:04:50.978Z,99932.00
2023-06-07T01:07:26.128Z,99924.72
2023-06-07T01:09:54.651Z,99928.31
2023-06-07T01:12:22.658Z,99930.38
2023-06-07T01:14:50.711Z,99920.41
2023-06-07T01:17:18.832Z,99936.66
2023-06-07T01:19:46.862Z,99919.59
2023-06-07T01:22:16.219Z,99908.78
2023-06-07T01:24:49.198Z,99919.66
2023-06-07T01:27:17.755Z,99922.94
2023-06-07T01:29:46.061Z,99923.50
2023-06-07T01:32:14.446Z,99922.03
2023-06-07T01:34:42.526Z,99921.84
2023-06-07T01:37:10.541Z,99923.69
2023-06-07T01:39:38.794Z,99923.69
2023-06-07T01:42:08.576Z,99925.34
2023-06-07T01:44:36.644Z,99930.13
2023-06-07T01:47:04.757Z,99917.25
2023-06-07T01:49:32.705Z,99924.88
2023-06-07T01:52:00.657Z,99923.63
2023-06-07T01:54:28.598Z,99924.44
2023-06-07T01:57:01.591Z,99924.66
2023-06-07T01:59:36.802Z,99921.47
2023-06-07T02:02:09.149Z,99921.84
2023-06-07T02:04:37.435Z,99923.28
2023-06-07T02:07:07.360Z,99914.97
2023-06-07T02:09:36.351Z,99904.47
2023-06-07T02:12:04.695Z,99929.00
2023-06-07T02:14:34.078Z,99928.56
2023-06-07T02:17:02.270Z,99935.00
2023-06-07T02:19:30.318Z,99926.25
2023-06-07T02:21:58.250Z,99931.31
2023-06-07T02:24:26.579Z,99925.06
2023-06-07T02:26:55.180Z,99916.28
2023-06-07T02:29:23.136Z,99915.09
2023-06-07T02:31:53.995Z,99915.13
2023-06-07T02:34:22.474Z,99925.56
2023-06-07T02:36:50.508Z,99928.44
2023-06-07T02:39:18.520Z,99938.91
2023-06-07T02:41:46.496Z,99932.69
2023-06-07T02:44:14.484Z,99933.97
2023-06-07T02:46:42.480Z,99937.28
2023-06-07T02:49:12.041Z,99938.56
2023-06-07T02:51:40.439Z,99932.31
2023-06-07T02:54:10.285Z,99940.09
2023-06-07T02:56:38.349Z,99930.13
2023-06-07T02:59:06.291Z,99930.22
2023-06-07T03:01:35.484Z,99930.63
2023-06-07T03:04:03.586Z,99926.28
2023-06-07T03:06:34.350Z,99923.84
2023-06-07T03:09:02.632Z,99933.63
2023-06-07T03:11:30.562Z,99930.78
2023-06-07T03:13:58.538Z,99936.19
2023-06-07T03:16:27.944Z,99925.59
2023-06-07T03:18:56.204Z,99919.78
2023-06-07T03:21:24.202Z,99921.44
2023-06-07T03:23:54.411Z,99917.28
2023-06-07T03:26:22.519Z,99916.25
2023-06-07T03:28:50.598Z,99917.69
2023-06-07T03:31:19.471Z,99912.03
2023-06-07T03:33:47.550Z,99909.75
2023-06-07T03:36:15.532Z,99914.97
2023-06-07T03:38:43.524Z,99910.94
2023-06-07T03:41:12.861Z,99926.31
2023-06-07T03:43:40.832Z,99923.81
2023-06-07T03:46:08.773Z,99924.97
2023-06-07T03:48:37.875Z,99915.81
2023-06-07T03:51:07.651Z,99917.03
2023-06-07T03:53:35.670Z,99919.81
2023-06-07T03:56:03.619Z,99915.53
2023-06-07T03:58:33.057Z,99917.06
2023-06-07T04:01:01.069Z,99922.53
2023-06-07T04:03:29.521Z,99926.28
2023-06-07T04:05:57.648Z,99929.31
2023-06-07T04:08:25.665Z,99928.22
2023-06-07T04:10:54.150Z,99924.81
2023-06-07T04:13:22.141Z,99931.84
2023-06-07T04:15:51.486Z,99943.66
2023-06-07T04:18:19.440Z,99939.75
2023-06-07T04:20:47.369Z,99944.31
2023-06-07T04:23:15.316Z,99949.28
2023-06-07T04:25:43.641Z,99946.59
2023-06-07T04:28:11.651Z,99944.13
2023-06-07T04:30:43.445Z,99938.88
2023-06-07T04:33:14.711Z,99949.28
2023-06-07T04:35:44.138Z,99944.78
2023-06-07T04:38:12.969Z,99943.78
2023-06-07T04:40:42.391Z,99943.75
2023-06-07T04:43:12.215Z,99941.50
2023-06-07T04:45:41.345Z,99939.41
2023-06-07T04:48:09.560Z,99937.00
2023-06-07T04:50:40.192Z,99943.13
2023-06-07T04:53:09.421Z,99941.13
2023-06-07T04:55:39.052Z,99945.09
2023-06-07T04:58:07.051Z,99948.53
2023-06-07T05:00:35.088Z,99949.09
2023-06-07T05:03:07.741Z,99944.28
2023-06-07T05:05:35.801Z,99936.38
2023-06-07T05:08:05.465Z,99936.06
2023-06-07T05:10:33.491Z,99937.91
2023-06-07T05:13:01.549Z,99935.19
2023-06-07T05:15:29.580Z,99943.38
2023-06-07T05:17:57.667Z,99950.25
2023-06-07T05:20:26.298Z,99948.06
2023-06-07T05:22:54.585Z,99949.94
2023-06-07T05:25:23.988Z,99949.69
2023-06-07T05:28:08.138Z,99951.66
2023-06-07T05:30:40.209Z,99950.06
2023-06-07T05:33:08.769Z,99951.91
2023-06-07T05:35:36.784Z,99946.66
2023-06-07T05:38:04.937Z,99930.88
2023-06-07T05:40:34.310Z,99950.94
2023-06-07T05:43:02.388Z,99943.59
2023-06-07T05:45:31.152Z,99956.66
2023-06-07T05:47:59.174Z,99959.94
2023-06-07T05:50:27.149Z,99955.22
2023-06-07T05:52:57.561Z,99958.44
2023-06-07T05:55:26.496Z,99969.88
2023-06-07T05:57:56.075Z,99975.91
2023-06-07T06:00:25.007Z,99962.69
2023-06-07T06:02:54.077Z,99969.19
2023-06-07T06:05:24.757Z,99971.50
2023-06-07T06:07:52.796Z,99964.34
2023-06-07T06:10:20.942Z,99968.44
2023-06-07T06:12:48.943Z,99976.16
2023-06-07T06:15:18.302Z,99973.47
2023-06-07T06:17:46.303Z,99970.81
2023-06-07T06:20:17.910Z,99976.13
2023-06-07T06:22:46.045Z,99974.97
2023-06-07T06:25:15.188Z,99971.59
2023-06-07T06:27:43.329Z,99978.91
2023-06-07T06:30:11.966Z,99978.53
2023-06-07T06:32:41.427Z,99974.44
2023-06-07T06:35:10.129Z,99982.63
2023-06-07T06:37:38.162Z,99978.94
2023-06-07T06:40:08.011Z,99982.44
2023-06-07T06:42:36.843Z,99980.50
2023-06-07T06:45:05.462Z,99970.84
2023-06-07T06:47:33.419Z,99979.81
2023-06-07T06:50:03.338Z,99964.53
2023-06-07T06:52:33.498Z,99975.84
2023-06-07T06:55:01.493Z,99971.38
2023-06-07T06:57:29.475Z,99970.09
2023-06-07T06:59:57.488Z,99973.31
2023-06-07T07:02:25.637Z,99981.50
2023-06-07T07:04:54.197Z,99969.41
2023-06-07T07:07:23.579Z,99969.72
2023-06-07T07:09:51.608Z,99970.44
2023-06-07T07:12:22.405Z,99969.75
2023-06-07T07:14:50.516Z,99977.00
2023-06-07T07:17:19.089Z,99980.88
2023-06-07T07:19:49.529Z,99977.81
2023-06-07T07:22:17.542Z,99971.53
2023-06-07T07:24:47.304Z,99972.88
2023-06-07T07:27:15.279Z,99968.44
2023-06-07T07:29:43.326Z,99975.47
2023-06-07T07:32:11.273Z,99983.38
2023-06-07T07:34:40.664Z,99980.06
2023-06-07T07:37:09.863Z,99979.22
2023-06-07T07:39:38.616Z,99979.63
2023-06-07T07:42:08.997Z,99977.28
2023-06-07T07:44:38.322Z,99977.34
2023-06-07T07:47:07.424Z,99978.63
2023-06-07T07:49:36.752Z,99969.09
2023-06-07T07:52:05.251Z,99970.69
2023-06-07T07:54:33.223Z,99972.53
2023-06-07T07:57:01.701Z,99974.31
2023-06-07T07:59:31.150Z,99966.38
2023-06-07T08:01:59.188Z,99970.19
2023-06-07T08:04:27.297Z,99978.03
2023-06-07T08:06:55.307Z,99965.88
2023-06-07T08:09:23.492Z,99969.03
2023-06-07T08:11:51.448Z,99964.28
2023-06-07T08:14:20.110Z,99977.69
2023-06-07T08:16:49.544Z,99967.69
2023-06-07T08:19:17.784Z,99968.06
2023-06-07T08:21:48.588Z,99963.06
2023-06-07T08:24:16.659Z,99970.25
2023-06-07T08:26:46.145Z,99957.66
2023-06-07T08:29:14.126Z,99955.91
2023-06-07T08:31:44.907Z,99961.31
2023-06-07T08:34:14.416Z,99956.34
2023-06-07T08:36:43.661Z,99949.13
2023-06-07T08:39:11.609Z,99960.63
2023-06-07T08:41:40.330Z,99953.75
2023-06-07T08:44:08.330Z,99957.94
2023-06-07T08:46:36.432Z,99951.72
2023-06-07T08:49:04.553Z,99953.50
2023-06-07T08:51:34.422Z,99950.72
2023-06-07T08:54:03.601Z,99952.16
2023-06-07T08:56:32.945Z,99950.03
2023-06-07T08:59:01.197Z,99949.97
2023-06-07T09:01:32.276Z,99947.13
2023-06-07T09:04:00.630Z,99953.47
2023-06-07T09:06:28.838Z,99948.72
2023-06-07T09:08:59.856Z,99949.38
2023-06-07T09:11:27.814Z,99958.50
2023-06-07T09:13:57.408Z,99952.22
2023-06-07T09:16:25.573Z,99943.81
2023-06-07T09:18:56.288Z,99946.38
2023-06-07T09:21:24.949Z,99936.81
2023-06-07T09:23:53.188Z,99935.16
2023-06-07T09:26:24.299Z,99940.06
2023-06-07T09:28:52.421Z,99936.78
2023-06-07T09:31:31.206Z,99936.84
2023-06-07T09:33:59.314Z,99936.84
2023-06-07T09:36:27.995Z,99934.97
2023-06-07T09:38:57.187Z,99944.03
2023-06-07T09:41:33.730Z,99946.25
2023-06-07T09:44:03.485Z,99944.72
2023-06-07T09:46:36.470Z,99950.16
2023-06-07T09:49:04.604Z,99950.88
2023-06-07T09:51:40.518Z,99943.94
2023-06-07T09:54:10.742Z,99946.66
2023-06-07T09:56:43.434Z,99938.06
2023-06-07T09:59:12.253Z,99937.00
2023-06-07T10:01:43.411Z,99941.41
2023-06-07T10:04:12.109Z,99936.19
2023-06-07T10:06:41.822Z,99940.66
2023-06-07T10:09:10.128Z,99930.63
2023-06-07T10:11:39.202Z,99930.69
2023-06-07T10:14:10.572Z,99927.19
2023-06-07T10:16:39.782Z,99934.19
2023-06-07T10:19:12.397Z,99924.53
2023-06-07T10:21:40.682Z,99924.22
2023-06-07T10:24:11.667Z,99918.19
2023-06-07T10:26:44.256Z,99919.31
2023-06-07T10:29:15.990Z,99926.34
2023-06-07T10:31:49.861Z,99923.00
2023-06-07T10:34:17.880Z,99931.56
2023-06-07T10:36:45.902Z,99925.16
2023-06-07T10:39:13.912Z,99926.75
2023-06-07T10:41:41.866Z,99925.91
2023-06-07T10:44:09.955Z,99919.94
2023-06-07T10:46:39.415Z,99928.34
2023-06-07T10:49:07.488Z,99918.44
2023-06-07T10:52:04.085Z,99917.81
2023-06-07T10:54:32.586Z,99914.09
2023-06-07T10:57:00.983Z,99926.81
2023-06-07T10:59:28.991Z,99922.16
2023-06-07T11:02:19.773Z,99914.78
2023-06-07T11:05:01.277Z,99912.69
2023-06-07T11:07:31.681Z,99905.16
2023-06-07T11:10:34.674Z,99900.06
2023-06-07T11:13:03.132Z,99899.00
2023-06-07T11:15:37.084Z,99896.22
2023-06-07T11:18:15.398Z,99893.97
2023-06-07T11:20:53.628Z,99886.47
2023-06-07T11:23:28.867Z,99876.50
2023-06-07T11:26:00.751Z,99875.53
2023-06-07T11:28:29.378Z,99888.47
2023-06-07T11:30:57.916Z,99882.88
2023-06-07T11:33:27.671Z,99887.81
2023-06-07T11:35:56.012Z,99890.53
2023-06-07T11:38:24.153Z,99899.53
2023-06-07T11:40:52.103Z,99882.97
2023-06-07T11:43:22.301Z,99889.34
2023-06-07T11:45:50.318Z,99882.31
2023-06-07T11:48:18.808Z,99871.34
2023-06-07T11:50:49.036Z,99878.81
2023-06-07T11:53:17.228Z,99876.69
2023-06-07T11:55:45.179Z,99872.94
2023-06-07T11:58:13.164Z,99868.09
2023-06-07T12:00:43.749Z,99864.38
2023-06-07T12:03:13.931Z,99857.69
2023-06-07T12:05:42.297Z,99865.22
2023-06-07T12:08:15.151Z,99852.16
2023-06-07T12:10:43.133Z,99855.06
2023-06-07T12:13:12.274Z,99850.88
2023-06-07T12:15:44.260Z,99849.66
2023-06-07T12:18:13.748Z,99842.56
2023-06-07T12:20:42.724Z,99834.03
2023-06-07T12:23:11.679Z,99835.03
2023-06-07T12:25:41.388Z,99838.94
2023-06-07T12:28:10.704Z,99832.53
2023-06-07T12:30:39.444Z,99835.34
2023-06-07T12:33:07.572Z,99831.69
2023-06-07T12:35:39.928Z,99819.09
2023-06-07T12:38:07.973Z,99824.97
2023-06-07T12:40:36.323Z,99819.38
2023-06-07T12:43:05.667Z,99821.69
2023-06-07T12:45:33.656Z,99813.81
2023-06-07T12:48:01.724Z,99808.22
2023-06-07T12:50:29.761Z,99809.53
2023-06-07T12:52:57.963Z,99804.00
2023-06-07T12:55:26.109Z,99800.59
2023-06-07T12:57:54.103Z,99804.81
2023-06-07T13:00:24.599Z,99803.84
2023-06-07T13:02:52.606Z,99803.88
2023-06-07T13:05:21.591Z,99786.50
2023-06-07T13:07:49.592Z,99795.97
2023-06-07T13:10:17.589Z,99791.56
2023-06-07T13:12:46.551Z,99793.03
2023-06-07T13:15:14.548Z,99796.09
2023-06-07T13:17:44.293Z,99786.38
2023-06-07T13:20:13.032Z,99784.72
2023-06-07T13:22:41.007Z,99780.09
2023-06-07T13:25:10.496Z,99784.94
2023-06-07T13:27:39.065Z,99785.06
2023-06-07T13:30:09.361Z,99787.94
2023-06-07T13:32:37.409Z,99781.72
2023-06-07T13:35:07.377Z,99787.06
2023-06-07T13:37:35.388Z,99786.78
2023-06-07T13:40:04.255Z,99785.38
2023-06-07T13:42:32.435Z,99793.63
2023-06-07T13:45:00.459Z,99790.03
2023-06-07T13:47:31.893Z,99787.66
2023-06-07T13:50:00.272Z,99786.50
2023-06-07T13:52:29.600Z,99780.91
2023-06-07T13:54:58.323Z,99783.34
2023-06-07T13:57:26.644Z,99781.16
2023-06-07T13:59:54.953Z,99770.50
2023-06-07T14:02:23.185Z,99778.16
2023-06-07T14:04:51.361Z,99773.81
2023-06-07T14:07:19.445Z,99771.91
2023-06-07T14:09:49.127Z,99772.91
2023-06-07T14:12:17.273Z,99767.81
2023-06-07T14:14:45.240Z,99770.50
2023-06-07T14:17:13.248Z,99770.88
2023-06-07T14:19:43.133Z,99743.66
2023-06-07T14:22:11.185Z,99745.66
2023-06-07T14:24:39.125Z,99756.63
2023-06-07T14:27:09.269Z,99751.41
2023-06-07T14:29:37.271Z,99756.13
2023-06-07T14:32:05.879Z,99749.13
2023-06-07T14:34:34.043Z,99755.31
2023-06-07T14:37:02.566Z,99748.72
2023-06-07T14:39:30.588Z,99744.16
2023-06-07T14:41:58.571Z,99747.75
2023-06-07T14:44:27.865Z,99746.88
2023-06-07T14:46:55.839Z,99742.75
2023-06-07T14:49:23.809Z,99746.47
2023-06-07T14:51:51.765Z,99733.91
2023-06-07T14:54:19.762Z,99737.31
2023-06-07T14:56:47.755Z,99739.38
2023-06-07T14:59:15.799Z,99739.75
2023-06-07T15:01:45.246Z,99745.06
2023-06-07T15:04:13.384Z,99743.13
2023-06-07T15:06:42.015Z,99741.09
2023-06-07T15:09:09.963Z,99750.06
2023-06-07T15:11:37.938Z,99745.63
2023-06-07T15:14:05.932Z,99747.84
2023-06-07T15:16:33.978Z,99744.97
2023-06-07T15:19:03.452Z,99748.03
2023-06-07T15:21:31.480Z,99754.63
2023-06-07T15:23:59.498Z,99750.22
2023-06-07T15:26:27.656Z,99751.88
2023-06-07T15:28:58.069Z,99750.75
2023-06-07T15:31:27.152Z,99751.78
2023-06-07T15:33:56.479Z,99755.22
2023-06-07T15:36:25.899Z,99747.44
2023-06-07T15:38:53.878Z,99752.00
2023-06-07T15:41:23.265Z,99735.25
2023-06-07T15:43:51.263Z,99747.16
2023-06-07T15:46:19.475Z,99754.34
2023-06-07T15:48:51.497Z,99742.19
2023-06-07T15:51:20.035Z,99744.94
2023-06-07T15:53:51.074Z,99735.97
2023-06-07T15:56:19.051Z,99739.94
2023-06-07T15:58:47.075Z,99735.69
2023-06-07T16:01:15.123Z,99744.25
2023-06-07T16:03:55.958Z,99737.38
2023-06-07T16:06:24.687Z,99742.44
2023-06-07T16:08:54.042Z,99738.13
2023-06-07T16:11:23.863Z,99740.94
2023-06-07T16:13:51.971Z,99743.56
2023-06-07T16:16:20.040Z,99746.13
2023-06-07T16:18:49.906Z,99745.63
2023-06-07T16:21:19.989Z,99746.22
2023-06-07T16:23:48.029Z,99740.22
2023-06-07T16:26:17.527Z,99746.84
2023-06-07T16:28:46.275Z,99741.38
2023-06-07T16:31:14.338Z,99750.25
2023-06-07T16:33:42.871Z,99748.38
2023-06-07T16:36:12.277Z,99743.97
2023-06-07T16:38:40.348Z,99740.69
2023-06-07T16:41:08.336Z,99747.59
2023-06-07T16:43:37.679Z,99744.31
2023-06-07T16:46:05.688Z,99746.53
2023-06-07T16:48:33.668Z,99747.94
2023-06-07T16:51:01.643Z,99751.50
2023-06-07T16:53:29.844Z,99743.22
2023-06-07T16:55:57.832Z,99752.00
2023-06-07T16:58:25.811Z,99750.91
2023-06-07T17:00:57.157Z,99747.88
2023-06-07T17:03:25.263Z,99750.06
2023-06-07T17:05:53.890Z,99748.63
2023-06-07T17:08:21.879Z,99748.38
2023-06-07T17:10:49.875Z,99755.75
2023-06-07T17:13:18.071Z,99764.47
2023-06-07T17:15:46.132Z,99759.53
2023-06-07T17:18:15.526Z,99761.97
2023-06-07T17:20:44.485Z,99760.78
2023-06-07T17:23:15.686Z,99762.66
2023-06-07T17:25:43.672Z,99770.38
2023-06-07T17:28:11.701Z,99763.94
2023-06-07T17:30:40.020Z,99774.53
2023-06-07T17:33:08.229Z,99766.00
2023-06-07T17:35:37.611Z,99772.69
2023-06-07T17:38:05.555Z,99773.75
2023-06-07T17:40:33.526Z,99778.56
2023-06-07T17:43:01.549Z,99777.13
2023-06-07T17:45:29.536Z,99771.03
2023-06-07T17:47:58.083Z,99768.94
2023-06-07T17:50:41.469Z,99772.47
2023-06-07T17:53:15.291Z,99773.19
2023-06-07T17:55:44.859Z,99775.63
2023-06-07T17:58:12.926Z,99768.00
2023-06-07T18:00:40.904Z,99775.84
2023-06-07T18:03:09.210Z,99774.91
2023-06-07T18:05:37.356Z,99774.28
2023-06-07T18:08:05.763Z,99779.09
2023-06-07T18:10:35.120Z,99779.44
2023-06-07T18:13:04.614Z,99780.97
2023-06-07T18:15:34.257Z,99782.50
2023-06-07T18:18:02.318Z,99783.50
2023-06-07T18:20:30.329Z,99781.22
2023-06-07T18:22:58.384Z,99788.19
2023-06-07T18:25:26.467Z,99787.09
2023-06-07T18:27:55.777Z,99797.22
2023-06-07T18:30:23.747Z,99795.13
2023-06-07T18:32:52.220Z,99784.44
2023-06-07T18:35:20.415Z,99787.00
2023-06-07T18:37:48.510Z,99795.94
2023-06-07T18:40:16.540Z,99799.34
2023-06-07T18:42:44.572Z,99803.31
2023-06-07T18:45:13.989Z,99804.03
2023-06-07T18:47:42.528Z,99803.38
2023-06-07T18:50:10.755Z,99816.44
2023-06-07T18:52:38.739Z,99810.66
2023-06-07T18:55:08.205Z,99816.13
2023-06-07T18:57:36.485Z,99808.81
2023-06-07T19:00:04.839Z,99819.56
2023-06-07T19:02:34.333Z,99821.63
2023-06-07T19:05:02.419Z,99818.53
2023-06-07T19:07:30.437Z,99829.03
2023-06-07T19:09:58.444Z,99825.16
2023-06-07T19:12:28.933Z,99829.16
2023-06-07T19:14:57.327Z,99830.69
2023-06-07T19:17:25.475Z,99834.63
2023-06-07T19:19:54.867Z,99840.09
2023-06-07T19:22:22.846Z,99828.97
2023-06-07T19:24:50.808Z,99841.44
2023-06-07T19:27:19.707Z,99837.75
2023-06-07T19:29:47.840Z,99840.94
2023-06-07T19:32:15.956Z,99845.84
2023-06-07T19:34:44.382Z,99836.59
2023-06-07T19:37:14.113Z,99838.13
2023-06-07T19:39:42.110Z,99843.75
2023-06-07T19:42:12.407Z,99853.00
2023-06-07T19:44:41.231Z,99850.16
2023-06-07T19:47:09.959Z,99846.22
2023-06-07T19:49:39.040Z,99846.59
2023-06-07T19:52:07.673Z,99837.13
2023-06-07T19:54:37.137Z,99842.94
2023-06-07T19:57:06.743Z,99840.53
2023-06-07T19:59:34.878Z,99841.91
2023-06-07T20:02:05.286Z,99845.59
2023-06-07T20:04:34.189Z,99833.84
2023-06-07T20:07:02.962Z,99840.38
2023-06-07T20:09:31.899Z,99839.28
2023-06-07T20:12:01.227Z,99846.47
2023-06-07T20:14:29.235Z,99839.09
2023-06-07T20:16:57.344Z,99843.38
2023-06-07T20:19:25.440Z,99849.28
2023-06-07T20:21:55.274Z,99844.78
2023-06-07T20:24:23.298Z,99850.22
2023-06-07T20:26:51.359Z,99846.88
2023-06-07T20:29:20.718Z,99844.88
2023-06-07T20:31:51.107Z,99842.94
2023-06-07T20:34:19.167Z,99845.31
2023-06-07T20:36:47.241Z,99844.94
2023-06-07T20:39:15.229Z,99838.72
2023-06-07T20:41:43.273Z,99839.66
2023-06-07T20:44:11.220Z,99834.66
2023-06-07T20:46:40.567Z,99839.97
2023-06-07T20:49:09.086Z,99841.13
2023-06-07T20:51:37.602Z,99844.97
2023-06-07T20:54:05.760Z,99849.25
2023-06-07T20:56:33.685Z,99849.53
2023-06-07T20:59:01.794Z,99844.84
2023-06-07T21:01:29.858Z,99850.53
2023-06-07T21:03:59.356Z,99840.09
2023-06-07T21:06:27.473Z,99849.59
2023-06-07T21:08:55.566Z,99855.56
2023-06-07T21:11:23.627Z,99853.59
2023-06-07T21:13:51.633Z,99853.22
2023-06-07T21:16:19.656Z,99850.59
2023-06-07T21:18:47.701Z,99852.47
2023-06-07T21:21:17.122Z,99855.03
2023-06-07T21:23:45.200Z,99857.56
2023-06-07T21:26:13.164Z,99856.19
2023-06-07T21:28:41.145Z,99857.09
2023-06-07T21:31:09.144Z,99855.25
2023-06-07T21:33:37.236Z,99858.41
2023-06-07T21:36:05.528Z,99850.69
2023-06-07T21:38:34.874Z,99858.63
2023-06-07T21:41:02.816Z,99853.63
2023-06-07T21:43:30.791Z,99861.78
2023-06-07T21:45:58.833Z,99862.00
2023-06-07T21:48:26.862Z,99854.91
2023-06-07T21:50:55.581Z,99850.75
2023-06-07T21:53:23.619Z,99855.78
2023-06-07T21:55:52.973Z,99855.63
2023-06-07T21:58:21.081Z,99853.34
2023-06-07T22:00:50.217Z,99859.22
2023-06-07T22:03:18.316Z,99860.09
2023-06-07T22:05:46.348Z,99855.09
2023-06-07T22:08:14.285Z,99851.75
2023-06-07T22:10:42.627Z,99850.13
2023-06-07T22:13:13.603Z,99851.59
2023-06-07T22:15:42.100Z,99846.44
2023-06-07T22:18:12.597Z,99850.63
2023-06-07T22:20:41.415Z,99851.09
2023-06-07T22:23:09.577Z,99851.50
2023-06-07T22:25:41.441Z,99848.63
2023-06-07T22:28:13.672Z,99849.94
2023-06-07T22:30:42.431Z,99845.34
2023-06-07T22:33:10.689Z,99847.47
2023-06-07T22:35:40.818Z,99851.63
2023-06-07T22:38:13.512Z,99853.53
2023-06-07T22:40:42.134Z,99845.41
2023-06-07T22:43:11.471Z,99853.34
2023-06-07T22:45:39.739Z,99851.72
2023-06-07T22:48:10.701Z,99853.78
2023-06-07T22:50:39.383Z,99855.88
2023-06-07T22:53:07.993Z,99856.91
2023-06-07T22:55:36.046Z,99843.38
2023-06-07T22:58:05.112Z,99847.53
2023-06-07T23:00:36.138Z,99849.84
2023-06-07T23:03:04.961Z,99845.06
2023-06-07T23:05:33.705Z,99847.56
2023-06-07T23:08:01.770Z,99841.13
2023-06-07T23:10:37.131Z,99836.31
2023-06-07T23:13:10.235Z,99843.84
2023-06-07T23:15:42.857Z,99836.34
2023-06-07T23:18:12.576Z,99839.69
2023-06-07T23:20:42.478Z,99843.44
2023-06-07T23:23:11.383Z,99844.28
2023-06-07T23:25:39.538Z,99838.44
2023-06-07T23:28:07.682Z,99840.75
2023-06-07T23:30:35.681Z,99834.06
2023-06-07T23:33:05.205Z,99831.78
2023-06-07T23:35:33.153Z,99834.94
2023-06-07T23:38:01.238Z,99838.88
2023-06-07T23:40:29.241Z,99818.44
2023-06-07T23:42:57.874Z,99823.47
2023-06-07T23:45:27.459Z,99829.09
2023-06-07T23:47:55.524Z,99829.69
2023-06-07T23:50:25.215Z,99827.22
2023-06-07T23:52:53.260Z,99831.19
2023-06-07T23:55:21.216Z,99830.13
2023-06-07T23:57:49.184Z,99830.56
